• Join FlightAware (Why Join?)
  • Login
  • US Flag 
07:49PM EDT


 

Airport Tracker/Info


-or-


 

Live Flight TrackerFlight Track Log ✈ F-GSPR ✈ 2013年 05月 02日 ✈ LFPG / CDG - KIAD

Flight Track Log - Related Links

Times and Time Zones

All times are in EDT time to prevent confusion due to time zone crossing. See the F-GSPR flight status page for this flight to view local times or setup timezone preferences in your user account.

Time Position Orientation Groundspeed Altitude Reporting Facility
EDT Latitude Longitude Course Direction KTS MPH feet Rate Location/Type
10:43AM 49.5198 0.3969 288° West  Level FlightAware Approximate
10:44AM 49.5515 0.2272 291° West  Level FlightAware Approximate
10:46AM 49.0214 2.5257 62° Northeast 170 196 800  Level FlightAware ADS-B
10:46AM 49.0211 2.5196 266° West 173 199 900 2,400 Climbing FlightAware ADS-B
10:46AM 49.0204 2.5077 265° West 172 198 1,400 2,400 Climbing FlightAware ADS-B
10:46AM 49.0188 2.4805 265° West 177 204 2,200 2,100 Climbing FlightAware ADS-B
10:46AM 49.0182 2.4695 265° West 175 201 2,500 1,980 Climbing FlightAware ADS-B
10:47AM 49.0178 2.4612 266° West 174 200 2,700 1,800 Climbing FlightAware ADS-B
10:47AM 49.0170 2.4411 267° West 175 201 3,200 1,680 Climbing FlightAware ADS-B
10:47AM 49.0161 2.4222 266° West 181 208 3,600 1,140 Climbing FlightAware ADS-B
10:47AM 49.0152 2.4073 265° West 198 228 3,700 540 Climbing FlightAware ADS-B
10:47AM 49.0143 2.3925 265° West 212 244 3,800 540 Climbing FlightAware ADS-B
10:48AM 49.0133 2.3745 265° West 226 260 3,900 780 Climbing FlightAware ADS-B
10:48AM 49.0121 2.3561 264° West 239 275 4,100 1,320 Climbing FlightAware ADS-B
10:48AM 49.0118 2.3384 269° West 244 281 4,400 1,680 Climbing FlightAware ADS-B
10:48AM 49.0124 2.3327 279° West 247 284 4,500 1,680 Climbing FlightAware ADS-B
10:48AM 49.0136 2.3261 285° West 252 290 4,600 840 Climbing FlightAware ADS-B
10:48AM 49.0151 2.3205 292° West 256 295 4,600 840 Level FlightAware ADS-B
10:48AM 49.0167 2.3154 296° West 259 298 4,700 1,620 Climbing FlightAware ADS-B
10:48AM 49.0209 2.3026 297° West 262 302 4,900 1,800 Climbing FlightAware ADS-B
10:48AM 49.0235 2.2934 293° West 266 306 5,100 1,800 Climbing FlightAware ADS-B
10:49AM 49.0265 2.2811 290° West 268 308 5,300 2,280 Climbing FlightAware ADS-B
10:49AM 49.0285 2.2706 286° West 266 306 5,600 3,000 Climbing FlightAware ADS-B
10:49AM 49.0308 2.2554 283° West 265 305 6,000 2,520 Climbing FlightAware ADS-B
10:49AM 49.0321 2.2445 280° West 266 306 6,200 2,460 Climbing FlightAware ADS-B
10:49AM 49.0341 2.2236 278° West 269 310 6,700 2,520 Climbing FlightAware ADS-B
10:49AM 49.0353 2.2039 275° West 270 311 7,100 2,280 Climbing FlightAware ADS-B
10:50AM 49.0368 2.1744 274° West 274 315 7,700 2,220 Climbing FlightAware ADS-B
10:50AM 49.0388 2.1373 275° West 275 316 8,400 2,220 Climbing FlightAware ADS-B
10:50AM 49.0405 2.1071 275° West 279 321 9,000 1,980 Climbing FlightAware ADS-B
10:50AM 49.0423 2.0739 275° West 282 325 9,500 1,920 Climbing FlightAware ADS-B
10:51AM 49.0446 2.0277 274° West 290 334 10,300 1,320 Climbing FlightAware ADS-B
10:51AM 49.0479 1.9629 274° West 320 368 10,700 840 Climbing FlightAware ADS-B
10:52AM 49.0516 1.8901 274° West 349 402 11,200 1,140 Climbing FlightAware ADS-B
10:52AM 49.0538 1.8126 273° West 376 433 11,900 1,980 Climbing FlightAware ADS-B
10:53AM 49.0550 1.7312 271° West 385 443 13,200 780 Climbing FlightAware ADS-B
10:53AM 49.0572 1.6704 271° West 386 444 12,600 2,400 Descending FlightAware UK
10:53AM 49.0567 1.6455 271° West 392 451 14,500 2,700 Climbing FlightAware ADS-B
10:54AM 49.0575 1.6033 271° West 394 453 13,700 2,580 Descending FlightAware UK
10:54AM 49.0586 1.5610 271° West 399 459 15,800 2,280 Climbing FlightAware ADS-B
10:54AM 49.0602 1.4845 271° West 396 456 15,300 2,160 Descending FlightAware UK
10:55AM 49.0620 1.3959 271° West 416 479 17,900 2,100 Climbing FlightAware ADS-B
10:55AM 49.0631 1.3447 271° West 414 476 17,000 2,280 Descending FlightAware UK
10:55AM 49.0638 1.3023 271° West 422 486 19,100 2,160 Climbing FlightAware ADS-B
10:56AM 49.0646 1.2550 271° West 418 481 18,100 2,040 Descending FlightAware UK
10:56AM 49.0658 1.1890 271° West 423 487 20,400 3,960 Climbing FlightAware ADS-B
10:56AM 49.0675 1.0965 272° West 432 497 21,600 2,340 Climbing FlightAware ADS-B
10:57AM 49.0690 1.0032 271° West 434 499 22,800 120 Climbing FlightAware ADS-B
10:57AM 49.0695 0.9458 271° West 424 488 21,700 -840 Descending FlightAware UK
10:58AM 49.0707 0.8898 272° West 426 490 22,300 5,100 Climbing FlightAware UK
10:58AM 49.0712 0.8628 272° West 447 514 24,000 1,500 Climbing FlightAware ADS-B
10:58AM 49.0717 0.8149 272° West 434 499 22,900 -960 Descending FlightAware UK
10:58AM 49.0723 0.7570 271° West 438 504 23,500 1,800 Climbing FlightAware UK
10:59AM 49.0730 0.6993 271° West 442 509 24,000 1,560 Climbing FlightAware UK
10:59AM 49.0741 0.6228 271° West 442 509 24,600 1,380 Climbing FlightAware UK
10:59AM 49.0750 0.5642 271° West 446 513 25,000 1,680 Climbing FlightAware UK
11:00AM 49.0762 0.4468 271° West 456 525 26,100 1,680 Climbing FlightAware UK
11:00AM 49.0774 0.3676 271° West 456 525 26,700 1,380 Climbing FlightAware UK
11:01AM 49.0782 0.3076 271° West 458 527 27,100 1,260 Climbing FlightAware UK
11:01AM 49.0790 0.1635 271° West 466 536 28,000 1,320 Climbing FlightAware UK
11:02AM 49.0799 0.0601 271° West 470 541 28,700 1,200 Climbing FlightAware UK
11:02AM 49.0812 -0.0861 271° West 482 555 29,500 1,260 Climbing FlightAware UK
11:03AM 49.0816 -0.1497 271° West 486 559 30,000 960 Climbing FlightAware UK
11:03AM 49.0821 -0.2978 270° West 482 555 30,500 420 Climbing FlightAware UK
11:04AM 49.0821 -0.3816 270° West 474 545 30,500 480 Level FlightAware UK
11:04AM 49.0823 -0.4631 270° West 476 548 30,900 1,500 Climbing FlightAware UK
11:05AM 49.0828 -0.5859 270° West 480 552 32,000 1,800 Climbing FlightAware UK
11:05AM 49.0830 -0.6673 270° West 472 543 32,700 1,800 Climbing FlightAware UK
11:06AM 49.0830 -0.7878 270° West 474 545 33,800 1,500 Climbing FlightAware UK
11:06AM 49.0831 -0.8677 270° West 474 545 34,200 660 Climbing FlightAware UK
11:07AM 49.0828 -0.9868 270° West 478 550 34,500 240 Climbing FlightAware UK
11:07AM 49.0829 -1.1064 270° West 476 548 34,500  Level FlightAware UK
11:08AM 49.0838 -1.1660 271° West 476 548 34,500  Level FlightAware UK
11:08AM 49.0955 -1.2626 280° West 474 545 34,500  Level FlightAware UK
11:09AM 49.1053 -1.3194 285° West 472 543 34,500  Level FlightAware UK
11:09AM 49.1210 -1.4155 284° West 474 545 34,500  Level FlightAware UK
11:10AM 49.1429 -1.5489 284° West 472 543 34,500  Level FlightAware UK
11:10AM 49.1619 -1.6637 284° West 470 541 34,500  Level FlightAware UK
11:11AM 49.1767 -1.7600 283° West 472 543 34,500  Level FlightAware UK
11:12AM 49.2007 -1.9139 283° West 476 548 34,500  Level FlightAware UK
11:12AM 49.2126 -1.9912 283° West 476 548 34,500  Level FlightAware UK
11:12AM 49.2245 -2.0676 283° West 474 545 34,500  Level FlightAware UK
11:13AM 49.2368 -2.1442 284° West 474 545 34,500  Level FlightAware UK
11:13AM 49.2503 -2.2200 285° West 468 539 34,500  Level FlightAware UK
11:14AM 49.2738 -2.3520 285° West 470 541 34,500  Level FlightAware UK
11:15AM 49.2992 -2.5027 285° West 472 543 34,500  Level FlightAware UK
11:16AM 49.3431 -2.7682 284° West 472 543 34,500  Level FlightAware UK
11:17AM 49.3650 -2.9001 284° West 472 543 34,500  Level FlightAware UK
11:18AM 49.3929 -3.0706 284° West 472 543 34,500  Level FlightAware UK
11:18AM 49.4022 -3.1275 284° West 472 543 34,500  Level FlightAware UK
11:19AM 49.4206 -3.2405 284° West 472 543 34,500  Level FlightAware UK
11:19AM 49.4297 -3.2973 284° West 470 541 34,500  Level FlightAware UK
11:19AM 49.4388 -3.3541 284° West 472 543 34,500  Level FlightAware UK
11:20AM 49.4477 -3.4102 284° West 474 545 34,500  Level FlightAware UK
11:20AM 49.4687 -3.5427 284° West 470 541 34,500  Level FlightAware UK
11:21AM 49.4806 -3.6183 284° West 470 541 34,500  Level FlightAware UK
11:21AM 49.4986 -3.7319 284° West 474 545 34,500  Level FlightAware UK
11:22AM 49.5162 -3.8456 284° West 472 543 34,500  Level FlightAware UK
11:22AM 49.5250 -3.9022 283° West 470 541 34,500  Level FlightAware UK
11:22AM 49.5337 -3.9588 283° West 470 541 34,500  Level FlightAware UK
11:23AM 49.5424 -4.0154 283° West 472 543 34,500  Level FlightAware UK
11:23AM 49.5510 -4.0721 283° West 472 543 34,500  Level FlightAware UK
11:24AM 49.5653 -4.1656 283° West 470 541 34,500  Level FlightAware UK
11:24AM 49.5738 -4.2222 283° West 470 541 34,500  Level FlightAware UK
11:24AM 49.5824 -4.2787 283° West 470 541 34,500  Level FlightAware UK
11:25AM 49.6014 -4.3499 292° West 470 541 34,500  Level FlightAware UK
11:25AM 49.6198 -4.4014 299° West 470 541 34,500  Level FlightAware UK
11:25AM 49.6479 -4.4664 304° West 470 541 34,500  Level FlightAware UK
11:26AM 49.6688 -4.5154 303° West 472 543 34,500  Level FlightAware UK
11:26AM 49.6897 -4.5644 303° West 468 539 34,500  Level FlightAware UK
11:26AM 49.7108 -4.6135 304° West 470 541 34,500  Level FlightAware UK
11:27AM 49.7389 -4.6789 304° West 470 541 34,500  Level FlightAware UK
11:27AM 49.7666 -4.7447 303° West 472 543 34,500  Level FlightAware UK
11:27AM 49.7874 -4.7942 303° West 472 543 34,500  Level FlightAware UK
11:28AM 49.8082 -4.8438 303° West 472 543 34,500  Level FlightAware UK
11:28AM 49.8289 -4.8934 303° West 470 541 34,500  Level FlightAware UK
11:28AM 49.8494 -4.9425 303° West 474 545 34,500  Level FlightAware UK
11:28AM 49.8702 -4.9921 303° West 472 543 34,500  Level FlightAware UK
11:29AM 49.8908 -5.0418 303° West 472 543 34,500  Level FlightAware UK
11:29AM 49.9117 -5.0914 303° West 472 543 34,500  Level FlightAware UK
11:29AM 49.9323 -5.1412 303° West 472 543 34,500  Level FlightAware UK
11:30AM 49.9529 -5.1910 303° West 470 541 34,500  Level FlightAware UK
11:30AM 49.9735 -5.2408 303° West 472 543 34,500  Level FlightAware UK
11:30AM 49.9941 -5.2907 303° West 472 543 34,500  Level FlightAware UK
11:31AM 50.0215 -5.3571 303° West 470 541 34,500  Level FlightAware UK
11:31AM 50.0421 -5.4070 303° West 474 545 34,500  Level FlightAware UK
11:31AM 50.0626 -5.4570 303° West 470 541 34,500  Level FlightAware UK
11:32AM 50.0832 -5.5070 303° West 472 543 34,500  Level FlightAware UK
11:32AM 50.1036 -5.5569 303° West 472 543 34,500  Level FlightAware UK
11:32AM 50.1239 -5.6069 302° West 470 541 34,500  Level FlightAware UK
11:32AM 50.1443 -5.6567 302° West 470 541 34,500  Level FlightAware UK
11:33AM 50.1644 -5.7067 302° West 468 539 34,500  Level FlightAware UK
11:33AM 50.1836 -5.7575 301° West 468 539 34,500  Level FlightAware UK
11:33AM 50.2021 -5.8088 299° West 470 541 34,500  Level FlightAware UK
11:34AM 50.2209 -5.8600 300° West 466 536 34,500  Level FlightAware UK
11:34AM 50.2399 -5.9112 300° West 468 539 34,500  Level FlightAware UK
11:34AM 50.2655 -5.9788 301° West 470 541 34,500  Level FlightAware UK
11:35AM 50.2848 -6.0301 301° West 470 541 34,500  Level FlightAware UK
11:35AM 50.3041 -6.0815 301° West 472 543 34,500  Level FlightAware UK
11:35AM 50.3235 -6.1328 301° West 472 543 34,500  Level FlightAware UK
11:36AM 50.3428 -6.1842 301° West 472 543 34,500  Level FlightAware UK
11:36AM 50.3621 -6.2354 300° West 474 545 34,500  Level FlightAware UK
11:36AM 50.3813 -6.2865 301° West 474 545 34,500  Level FlightAware UK
11:36AM 50.4004 -6.3374 301° West 472 543 34,500  Level FlightAware UK
11:37AM 50.4194 -6.3883 300° West 474 545 34,500  Level FlightAware UK
11:37AM 50.4384 -6.4389 301° West 472 543 34,500  Level FlightAware UK
11:37AM 50.4571 -6.4896 300° West 472 543 34,500  Level FlightAware UK
11:38AM 50.4758 -6.5402 300° West 472 543 34,500  Level FlightAware UK
11:38AM 50.4943 -6.5907 300° West 470 541 34,500  Level FlightAware UK
11:38AM 50.5128 -6.6412 300° West 470 541 34,500  Level FlightAware UK
11:39AM 50.5314 -6.6918 300° West 470 541 34,500  Level FlightAware UK
11:39AM 50.5499 -6.7424 300° West 472 543 34,500  Level FlightAware UK
11:39AM 50.5684 -6.7932 300° West 470 541 34,500  Level FlightAware UK
11:39AM 50.5869 -6.8440 300° West 470 541 34,500  Level FlightAware UK
11:40AM 50.6056 -6.8946 300° West 472 543 34,500  Level FlightAware UK
11:40AM 50.6242 -6.9452 300° West 470 541 34,500  Level FlightAware UK
11:40AM 50.6427 -6.9958 300° West 468 539 34,500  Level FlightAware UK
11:41AM 50.6610 -7.0464 300° West 468 539 34,500  Level FlightAware UK
11:41AM 50.6790 -7.0963 300° West 464 534 34,500 120 Level FlightAware UK
11:41AM 50.6971 -7.1467 300° West 466 536 34,600 780 Climbing FlightAware UK
11:42AM 50.7152 -7.1973 299° West 468 539 35,000 960 Climbing FlightAware UK
11:42AM 50.7333 -7.2478 300° West 470 541 35,200 660 Climbing FlightAware UK
11:42AM 50.7514 -7.2986 299° West 468 539 35,400 480 Climbing FlightAware UK
11:42AM 50.7697 -7.3497 300° West 472 543 35,500  Climbing FlightAware UK
11:43AM 50.7882 -7.4013 300° West 472 543 35,400 -180 Descending FlightAware UK
11:43AM 50.8066 -7.4531 299° West 472 543 35,400  Level FlightAware UK
11:43AM 50.8250 -7.5048 299° West 470 541 35,400  Level FlightAware UK
11:44AM 50.8433 -7.5563 299° West 472 543 35,400  Level FlightAware UK
11:44AM 50.8616 -7.6077 299° West 470 541 35,400 120 Level FlightAware UK
11:44AM 50.8799 -7.6592 299° West 472 543 35,500  Climbing FlightAware UK
11:45AM 50.8981 -7.7107 299° West 472 543 35,400 -180 Descending FlightAware UK
11:45AM 50.9162 -7.7621 299° West 470 541 35,400  Level FlightAware UK
11:45AM 50.9344 -7.8135 299° West 470 541 35,400  Level FlightAware UK
11:45AM 50.9525 -7.8647 299° West 468 539 35,400  Level FlightAware UK
11:46AM 50.9706 -7.9160 299° West 472 543 35,400 120 Level FlightAware UK
11:46AM 50.9886 -7.9673 299° West 472 543 35,500 120 Climbing FlightAware UK
11:46AM 51.0063 -8.0187 299° West 472 543 35,500 -180 Level FlightAware UK
11:47AM 51.0241 -8.0703 299° West 470 541 35,400 -180 Descending FlightAware UK
11:47AM 51.0411 -8.1223 298° West 468 539 35,400 120 Level FlightAware UK
11:47AM 51.0578 -8.1746 297° West 470 541 35,500  Climbing FlightAware UK
11:48AM 51.0745 -8.2271 297° West 470 541 35,400 -180 Descending FlightAware UK
11:48AM 51.0910 -8.2791 297° West 470 541 35,400  Level FlightAware UK
11:48AM 51.1079 -8.3316 297° West 470 541 35,400  Level FlightAware UK
11:48AM 51.1249 -8.3839 297° West 470 541 35,400 120 Level FlightAware UK
11:49AM 51.1420 -8.4362 297° West 470 541 35,500 120 Climbing FlightAware UK
11:49AM 51.1589 -8.4886 297° West 470 541 35,500  Level FlightAware UK
11:49AM 51.1759 -8.5410 297° West 466 536 35,500  Level FlightAware UK
11:50AM 51.1928 -8.5934 297° West 470 541 35,500  Level FlightAware UK
11:50AM 51.2097 -8.6459 297° West 472 543 35,500  Level FlightAware UK
11:50AM 51.2266 -8.6985 297° West 474 545 35,500  Level FlightAware UK
11:51AM 51.2435 -8.7510 297° West 476 548 35,500  Level FlightAware UK
11:51AM 51.2604 -8.8033 297° West 474 545 35,500  Level FlightAware UK
11:51AM 51.2771 -8.8556 297° West 470 541 35,500  Level FlightAware UK
11:51AM 51.2936 -8.9077 297° West 470 541 35,500  Level FlightAware UK
11:52AM 51.3100 -8.9598 297° West 470 541 35,500  Level FlightAware UK
11:52AM 51.3264 -9.0118 297° West 468 539 35,500  Level FlightAware UK
11:54AM 51.3063 -9.2995 264° West  Level FlightAware Approximate
12:01PM 51.5019 -10.7157 282° West  Level Estimated
12:02PM 51.5224 -10.9208 279° West  Level FlightAware Approximate
12:03PM 51.5424 -11.1261 279° West  Level FlightAware Approximate
12:04PM 51.5621 -11.3316 279° West  Level FlightAware Approximate
12:05PM 51.5814 -11.5372 279° West  Level FlightAware Approximate
12:06PM 51.6004 -11.7430 279° West  Level FlightAware Approximate
12:07PM 51.6190 -11.9490 278° West  Level FlightAware Approximate
12:08PM 51.6373 -12.1552 278° West  Level FlightAware Approximate
12:09PM 51.6552 -12.3615 278° West  Level FlightAware Approximate
12:10PM 51.6727 -12.5679 278° West  Level FlightAware Approximate
12:11PM 51.6898 -12.7746 278° West  Level FlightAware Approximate
12:12PM 51.7066 -12.9813 278° West  Level FlightAware Approximate
12:13PM 51.7231 -13.1883 277° West  Level FlightAware Approximate
12:14PM 51.7392 -13.3954 277° West  Level FlightAware Approximate
12:15PM 51.7549 -13.6026 277° West  Level FlightAware Approximate
12:16PM 51.7702 -13.8100 277° West  Level FlightAware Approximate
12:17PM 51.7852 -14.0175 277° West  Level FlightAware Approximate
12:18PM 51.7998 -14.2251 277° West  Level FlightAware Approximate
12:19PM 51.8141 -14.4329 276° West  Level FlightAware Approximate
12:20PM 51.8279 -14.6408 276° West  Level FlightAware Approximate
12:21PM 51.8415 -14.8489 276° West  Level FlightAware Approximate
12:22PM 51.8611 -15.0557 277° West  Level Estimated
12:23PM 51.8775 -15.2634 277° West  Level FlightAware Approximate
12:24PM 51.8935 -15.4712 277° West  Level FlightAware Approximate
12:25PM 51.9092 -15.6791 277° West  Level FlightAware Approximate
12:26PM 51.9245 -15.8872 277° West  Level FlightAware Approximate
12:27PM 51.9394 -16.0954 277° West  Level FlightAware Approximate
12:28PM 51.9540 -16.3038 277° West  Level FlightAware Approximate
12:29PM 51.9682 -16.5123 276° West  Level FlightAware Approximate
12:30PM 51.9820 -16.7209 276° West  Level FlightAware Approximate
12:31PM 51.9955 -16.9297 276° West  Level FlightAware Approximate
12:32PM 52.0086 -17.1386 276° West  Level FlightAware Approximate
12:33PM 52.0213 -17.3476 276° West  Level FlightAware Approximate
12:34PM 52.0362 -17.5505 277° West  Level Estimated
12:35PM 52.0508 -17.7535 277° West  Level Estimated
12:36PM 52.0649 -17.9566 277° West  Level Estimated
12:37PM 52.0788 -18.1599 276° West  Level Estimated
12:38PM 52.0923 -18.3632 276° West  Level Estimated
12:39PM 52.1054 -18.5667 276° West  Level Estimated
12:40PM 52.1182 -18.7704 276° West  Level Estimated
12:41PM 52.1306 -18.9741 276° West  Level Estimated
12:42PM 52.1427 -19.1779 276° West  Level Estimated
12:43PM 52.1544 -19.3819 275° West  Level Estimated
12:44PM 52.1658 -19.5860 275° West  Level Estimated
12:45PM 52.1768 -19.7901 275° West  Level Estimated
12:46PM 52.1875 -19.9944 275° West  Level Estimated
12:47PM 52.1978 -20.1988 275° West  Level Estimated
12:48PM 52.2078 -20.4032 275° West  Level Estimated
12:49PM 52.2174 -20.6078 274° West  Level Estimated
12:50PM 52.2266 -20.8124 274° West  Level Estimated
12:51PM 52.2355 -21.0171 274° West  Level Estimated
12:52PM 52.2441 -21.2219 274° West  Level Estimated
12:52PM 54.0000 -20.0000 274° West 459 528 37,000  Level ETMS Enhanced Traffic Management System
12:53PM 52.2523 -21.4268 274° West  Level Estimated
12:54PM 52.2601 -21.6317 274° West  Level Estimated
12:55PM 52.2676 -21.8368 273° West  Level Estimated
12:56PM 52.2748 -22.0418 273° West  Level Estimated
12:57PM 52.2815 -22.2470 273° West  Level Estimated
12:58PM 54.0471 -21.3016 273° West 459 528 37,000  Level FlightAware Transoceanic
12:59PM 54.0535 -21.5187 273° West 459 528 37,000  Level FlightAware Transoceanic
01:00PM 54.0596 -21.7360 273° West 459 528 37,000  Level FlightAware Transoceanic
01:01PM 54.0653 -21.9533 272° West 459 528 37,000  Level FlightAware Transoceanic
01:02PM 54.0706 -22.1707 272° West 459 528 37,000  Level FlightAware Transoceanic
01:03PM 54.0755 -22.3881 272° West 459 528 37,000  Level FlightAware Transoceanic
01:04PM 54.0800 -22.6056 272° West 459 528 37,000  Level FlightAware Transoceanic
01:05PM 54.0842 -22.8232 272° West 459 528 37,000  Level FlightAware Transoceanic
01:06PM 54.0879 -23.0407 272° West 459 528 37,000  Level FlightAware Transoceanic
01:07PM 54.0912 -23.2583 271° West 459 528 37,000  Level FlightAware Transoceanic
01:08PM 54.0942 -23.4760 271° West 459 528 37,000  Level FlightAware Transoceanic
01:09PM 54.0967 -23.6936 271° West 459 528 37,000  Level FlightAware Transoceanic
01:10PM 54.0989 -23.9113 271° West 459 528 37,000  Level FlightAware Transoceanic
01:11PM 54.1007 -24.1290 271° West 459 528 37,000  Level FlightAware Transoceanic
01:12PM 54.1021 -24.3468 271° West 459 528 37,000  Level FlightAware Transoceanic
01:13PM 54.1030 -24.5645 270° West 459 528 37,000  Level FlightAware Transoceanic
01:14PM 54.1036 -24.7822 270° West 459 528 37,000  Level FlightAware Transoceanic
01:15PM 54.1038 -25.0000 270° West 459 528 37,000  Level FlightAware Transoceanic
01:16PM 54.1036 -25.2178 270° West 459 528 37,000  Level FlightAware Transoceanic
01:17PM 54.1030 -25.4355 270° West 459 528 37,000  Level FlightAware Transoceanic
01:18PM 54.1021 -25.6532 269° West 459 528 37,000  Level FlightAware Transoceanic
01:19PM 54.1007 -25.8710 269° West 459 528 37,000  Level FlightAware Transoceanic
01:20PM 54.0989 -26.0887 269° West 459 528 37,000  Level FlightAware Transoceanic
01:21PM 54.0967 -26.3064 269° West 459 528 37,000  Level FlightAware Transoceanic
01:22PM 54.0942 -26.5240 269° West 459 528 37,000  Level FlightAware Transoceanic
01:23PM 54.0912 -26.7417 269° West 459 528 37,000  Level FlightAware Transoceanic
01:24PM 54.0879 -26.9593 268° West 459 528 37,000  Level FlightAware Transoceanic
01:25PM 54.0842 -27.1768 268° West 459 528 37,000  Level FlightAware Transoceanic
01:26PM 54.0800 -27.3944 268° West 459 528 37,000  Level FlightAware Transoceanic
01:27PM 54.0755 -27.6119 268° West 459 528 37,000  Level FlightAware Transoceanic
01:28PM 54.0706 -27.8293 268° West 459 528 37,000  Level FlightAware Transoceanic
01:29PM 54.0653 -28.0467 268° West 459 528 37,000  Level FlightAware Transoceanic
01:30PM 54.0596 -28.2640 267° West 459 528 37,000  Level FlightAware Transoceanic
01:31PM 54.0535 -28.4813 267° West 459 528 37,000  Level FlightAware Transoceanic
01:32PM 54.0471 -28.6984 267° West 459 528 37,000  Level FlightAware Transoceanic
01:33PM 54.0402 -28.9156 267° West 459 528 37,000  Level FlightAware Transoceanic
01:34PM 54.0329 -29.1326 267° West 459 528 37,000  Level FlightAware Transoceanic
01:35PM 54.0253 -29.3496 266° West 459 528 37,000  Level FlightAware Transoceanic
01:36PM 54.0173 -29.5665 266° West 459 528 37,000  Level FlightAware Transoceanic
01:37PM 54.0088 -29.7833 266° West 459 528 37,000  Level FlightAware Transoceanic
01:38PM 54.0001 -29.9967 266° West  Level FlightAware Approximate
01:39PM 53.9910 -30.2099 266° West  Level FlightAware Approximate
01:40PM 54.0084 -30.2067 274° West  Level FlightAware Approximate
01:41PM 54.0167 -30.4201 274° West  Level FlightAware Approximate
01:42PM 54.0247 -30.6336 274° West  Level FlightAware Approximate
01:43PM 54.0322 -30.8472 274° West  Level FlightAware Approximate
01:44PM 54.0394 -31.0609 273° West  Level FlightAware Approximate
01:45PM 54.0462 -31.2747 273° West  Level FlightAware Approximate
01:46PM 54.0527 -31.4885 273° West  Level FlightAware Approximate
01:47PM 54.0587 -31.7024 273° West  Level FlightAware Approximate
01:48PM 54.0644 -31.9164 273° West  Level FlightAware Approximate
01:49PM 54.0697 -32.1304 272° West  Level FlightAware Approximate
01:50PM 54.0746 -32.3444 272° West  Level FlightAware Approximate
01:51PM 54.0791 -32.5586 272° West  Level FlightAware Approximate
01:52PM 54.0833 -32.7727 272° West  Level FlightAware Approximate
01:53PM 54.0870 -32.9869 272° West  Level FlightAware Approximate
01:54PM 54.0904 -33.2011 272° West  Level FlightAware Approximate
01:55PM 54.0934 -33.4154 271° West  Level FlightAware Approximate
01:56PM 54.0961 -33.6297 271° West  Level FlightAware Approximate
01:57PM 54.0983 -33.8440 271° West  Level FlightAware Approximate
01:58PM 54.1002 -34.0583 271° West  Level FlightAware Approximate
01:59PM 54.1016 -34.2727 271° West  Level FlightAware Approximate
02:00PM 54.1027 -34.4871 271° West  Level FlightAware Approximate
02:01PM 54.1035 -34.7015 270° West  Level FlightAware Approximate
02:02PM 54.1038 -34.9159 270° West  Level FlightAware Approximate
02:03PM 54.1037 -35.1302 270° West  Level FlightAware Approximate
02:04PM 54.1033 -35.3446 270° West  Level FlightAware Approximate
02:05PM 54.1025 -35.5590 270° West  Level FlightAware Approximate
02:06PM 54.1013 -35.7734 270° West  Level FlightAware Approximate
02:07PM 54.0998 -35.9877 269° West  Level FlightAware Approximate
02:08PM 54.0978 -36.2021 269° West  Level FlightAware Approximate
02:09PM 54.0955 -36.4164 269° West  Level FlightAware Approximate
02:10PM 54.0928 -36.6307 269° West  Level FlightAware Approximate
02:11PM 54.0897 -36.8449 269° West  Level FlightAware Approximate
02:12PM 54.0862 -37.0592 269° West  Level FlightAware Approximate
02:13PM 54.0824 -37.2733 268° West  Level FlightAware Approximate
02:14PM 54.0782 -37.4875 268° West  Level FlightAware Approximate
02:15PM 54.0735 -37.7016 268° West  Level FlightAware Approximate
02:16PM 54.0686 -37.9156 268° West  Level FlightAware Approximate
02:17PM 54.0632 -38.1296 268° West  Level FlightAware Approximate
02:18PM 54.0574 -38.3436 267° West  Level FlightAware Approximate
02:19PM 54.0513 -38.5575 267° West  Level FlightAware Approximate
02:20PM 54.0448 -38.7713 267° West  Level FlightAware Approximate
02:21PM 54.0379 -38.9850 267° West  Level FlightAware Approximate
02:22PM 54.0307 -39.1987 267° West  Level FlightAware Approximate
02:23PM 54.0230 -39.4123 267° West  Level FlightAware Approximate
02:24PM 54.0150 -39.6258 266° West  Level FlightAware Approximate
02:25PM 54.0066 -39.8392 266° West  Level FlightAware Approximate
02:26PM 53.9970 -40.0524 264° West  Level FlightAware Approximate
02:27PM 53.9844 -40.2652 264° West  Level FlightAware Approximate
02:28PM 53.9715 -40.4778 264° West  Level FlightAware Approximate
02:29PM 53.9582 -40.6903 264° West  Level FlightAware Approximate
02:30PM 53.9446 -40.9026 264° West  Level FlightAware Approximate
02:31PM 53.9305 -41.1148 264° West  Level FlightAware Approximate
02:32PM 53.9161 -41.3269 264° West  Level FlightAware Approximate
02:33PM 53.9013 -41.5388 263° West  Level FlightAware Approximate
02:34PM 53.8862 -41.7505 263° West  Level FlightAware Approximate
02:35PM 53.8707 -41.9621 263° West  Level FlightAware Approximate
02:36PM 53.8548 -42.1735 263° West  Level FlightAware Approximate
02:37PM 53.8385 -42.3848 263° West  Level FlightAware Approximate
02:38PM 53.8218 -42.5959 262° West  Level FlightAware Approximate
02:39PM 53.8048 -42.8069 262° West  Level FlightAware Approximate
02:40PM 53.7874 -43.0177 262° West  Level FlightAware Approximate
02:41PM 53.7697 -43.2282 262° West  Level FlightAware Approximate
02:42PM 53.7516 -43.4386 262° West  Level FlightAware Approximate
02:43PM 53.7331 -43.6489 262° West  Level FlightAware Approximate
02:44PM 53.7142 -43.8589 261° West  Level FlightAware Approximate
02:45PM 53.6950 -44.0688 261° West  Level FlightAware Approximate
02:46PM 53.6754 -44.2784 261° West  Level FlightAware Approximate
02:47PM 53.6555 -44.4879 261° West  Level FlightAware Approximate
02:48PM 53.6351 -44.6972 261° West  Level FlightAware Approximate
02:49PM 53.6144 -44.9062 261° West  Level FlightAware Approximate
02:50PM 53.5933 -45.1150 260° West  Level FlightAware Approximate
02:51PM 53.5715 -45.3236 260° West  Level FlightAware Approximate
02:52PM 53.5493 -45.5319 260° West  Level FlightAware Approximate
02:53PM 53.5268 -45.7399 260° West  Level FlightAware Approximate
02:54PM 53.5039 -45.9478 260° West  Level FlightAware Approximate
02:55PM 53.4807 -46.1555 259° West  Level FlightAware Approximate
02:56PM 53.4571 -46.3629 259° West  Level FlightAware Approximate
02:57PM 53.4331 -46.5700 259° West  Level FlightAware Approximate
02:58PM 53.4088 -46.7770 259° West  Level FlightAware Approximate
02:59PM 53.3842 -46.9837 259° West  Level FlightAware Approximate
03:00PM 53.3591 -47.1902 259° West  Level FlightAware Approximate
03:01PM 53.3337 -47.3964 258° West  Level FlightAware Approximate
03:02PM 53.3085 -47.6026 259° West  Level FlightAware Approximate
03:03PM 53.2840 -47.8088 259° West  Level FlightAware Approximate
03:04PM 53.2592 -48.0149 259° West  Level FlightAware Approximate
03:04PM 52.8833 -50.4167 258° West 280 322 38,000  Level Gander Center
03:05PM 53.2340 -48.2207 259° West  Level FlightAware Approximate
03:05PM 52.8333 -50.6333 249° West 490 564 38,000  Level Gander Center
03:06PM 53.2085 -48.4263 258° West  Level FlightAware Approximate
03:06PM 52.8167 -50.8500 263° West 500 575 38,000  Level Gander Center
03:07PM 53.1825 -48.6316 258° West  Level FlightAware Approximate
03:07PM 52.7667 -51.0667 249° West 500 575 38,000  Level Gander Center
03:08PM 53.1563 -48.8366 258° West  Level FlightAware Approximate
03:08PM 52.7167 -51.3000 251° West 500 575 38,000  Level Gander Center
03:09PM 53.1297 -49.0415 258° West  Level FlightAware Approximate
03:09PM 52.6500 -51.5000 241° Southwest 510 587 38,000  Level Gander Center
03:10PM 52.6167 -51.7667 258° West 510 587 38,000  Level Gander Center
03:11PM 52.5667 -51.9667 248° West 510 587 38,000  Level Gander Center
03:12PM 52.5000 -52.2000 245° Southwest 520 598 38,000  Level Gander Center
03:13PM 52.4500 -52.4000 248° West 520 598 38,000  Level Gander Center
03:14PM 52.4000 -52.6333 251° West 510 587 38,000  Level Gander Center
03:15PM 52.3500 -52.8333 248° West 510 587 38,000  Level Gander Center
03:16PM 52.2833 -53.0500 243° Southwest 510 587 38,000  Level Gander Center
03:17PM 52.2167 -53.2500 242° Southwest 520 598 38,000  Level Gander Center
03:18PM 52.1667 -53.4667 249° West 510 587 38,000  Level Gander Center
03:19PM 52.1000 -53.6833 243° Southwest 520 598 38,000  Level Gander Center
03:20PM 52.0500 -53.9000 250° West 520 598 38,000  Level Gander Center
03:21PM 51.9833 -54.1000 242° Southwest 510 587 38,000  Level Gander Center
03:22PM 51.9167 -54.3000 242° Southwest 510 587 38,000  Level Gander Center
03:23PM 51.8500 -54.5333 245° Southwest 520 598 38,000  Level Gander Center
03:24PM 51.7833 -54.7333 242° Southwest 520 598 38,000  Level Gander Center
03:25PM 51.7000 -54.9333 236° Southwest 520 598 38,000  Level Gander Center
03:26PM 51.6333 -55.1333 242° Southwest 520 598 38,000  Level Gander Center
03:27PM 51.5500 -55.3333 236° Southwest 520 598 38,000  Level Gander Center
03:28PM 51.4667 -55.5333 236° Southwest 530 610 38,000  Level Gander Center
03:29PM 51.4000 -55.7333 242° Southwest 530 610 38,000  Level Gander Center
03:30PM 51.3167 -55.9333 236° Southwest 520 598 38,000  Level Gander Center
03:31PM 51.2500 -56.1167 240° Southwest 520 598 38,000  Level Gander Center
03:32PM 51.1500 -56.3167 231° Southwest 530 610 38,000  Level Gander Center
03:33PM 51.0833 -56.5167 242° Southwest 520 598 38,000  Level Gander Center
03:34PM 51.0000 -56.7167 237° Southwest 520 598 38,000  Level Gander Center
03:35PM 50.9000 -56.9000 229° Southwest 530 610 38,000  Level Gander Center
03:36PM 50.8333 -57.1000 242° Southwest 520 598 38,000  Level Gander Center
03:36PM 50.8000 -57.1667 232° Southwest 530 610 38,000  Level Moncton Center
03:37PM 50.7167 -57.3500 234° Southwest 520 598 38,000  Level Moncton Center
03:38PM 50.6667 -57.5167 245° Southwest 520 598 38,000  Level Gander Center
03:39PM 50.6000 -57.6500 232° Southwest 510 587 38,000  Level Gander Center
03:40PM 50.5000 -57.8667 234° Southwest 520 598 38,000  Level Gander Center
03:41PM 50.4167 -58.0333 232° Southwest 520 598 38,000  Level Gander Center
03:42PM 50.3500 -58.2500 244° Southwest 520 598 38,000  Level Gander Center
03:42PM 50.3167 -58.2833 213° Southwest 520 598 38,000  Level Moncton Center
03:43PM 50.2333 -58.4833 237° Southwest 520 598 38,000  Level Moncton Center
03:44PM 50.1500 -58.6667 235° Southwest 520 598 38,000  Level Moncton Center
03:45PM 50.1000 -58.7833 236° Southwest 520 598 38,000  Level Gander Center
03:45PM 50.0667 -58.8667 238° Southwest 520 598 38,000  Level Moncton Center
03:46PM 50.0167 -58.9667 232° Southwest 520 598 38,000  Level Gander Center
03:47PM 49.9333 -59.1500 235° Southwest 520 598 38,000  Level Gander Center
03:48PM 49.8500 -59.3333 235° Southwest 520 598 38,000  Level Gander Center
03:48PM 49.8167 -59.4167 238° Southwest 520 598 38,000  Level Moncton Center
03:49PM 49.7500 -59.5833 238° Southwest 520 598 38,000  Level Moncton Center
03:50PM 49.6500 -59.7667 230° Southwest 520 598 38,000  Level Moncton Center
03:51PM 49.6000 -59.8833 237° Southwest 520 598 38,000  Level Gander Center
03:52PM 49.5167 -60.0667 235° Southwest 520 598 38,000  Level Gander Center
03:52PM 49.4833 -60.1500 238° Southwest 520 598 38,000  Level Moncton Center
03:53PM 49.3833 -60.3000 224° Southwest 530 610 38,000  Level Moncton Center
03:54PM 49.3333 -60.4333 240° Southwest 520 598 38,000  Level Gander Center
03:55PM 49.2500 -60.6167 235° Southwest 520 598 38,000  Level Gander Center
03:55PM 49.2167 -60.6833 233° Southwest 520 598 38,000  Level Moncton Center
03:56PM 49.1167 -60.8667 230° Southwest 530 610 38,000  Level Moncton Center
03:57PM 49.0333 -61.0500 235° Southwest 530 610 38,000  Level Moncton Center
03:58PM 48.9667 -61.2167 239° Southwest 530 610 38,000  Level Moncton Center
03:59PM 48.8667 -61.4000 230° Southwest 530 610 38,000  Level Moncton Center
04:00PM 48.7833 -61.5833 235° Southwest 530 610 38,000  Level Moncton Center
04:01PM 48.7333 -61.6833 233° Southwest 530 610 38,000  Level Gander Center
04:02PM 48.6333 -61.8667 231° Southwest 530 610 38,000  Level Gander Center
04:02PM 48.6000 -61.9167 225° Southwest 520 598 38,000  Level Moncton Center
04:03PM 48.5500 -62.0333 237° Southwest 520 598 38,000  Level Gander Center
04:04PM 48.4667 -62.2167 236° Southwest 530 610 38,000  Level Gander Center
04:04PM 48.4167 -62.2833 222° Southwest 530 610 38,000  Level Moncton Center
04:05PM 48.3667 -62.3833 233° Southwest 520 598 38,000  Level Gander Center
04:05PM 48.3333 -62.4500 233° Southwest 520 598 38,000 840 Level Moncton Center
04:06PM 48.2333 -62.6333 231° Southwest 520 598 39,200 960 Climbing Moncton Center
04:07PM 48.1500 -62.7833 230° Southwest 520 598 40,000 360 Climbing Moncton Center
04:08PM 48.0667 -62.9667 236° Southwest 520 598 40,000  Level Moncton Center
04:09PM 47.9833 -63.1500 236° Southwest 520 598 40,000  Level Moncton Center
04:10PM 47.8833 -63.3167 228° Southwest 520 598 40,000  Level Moncton Center
04:11PM 47.8000 -63.4667 230° Southwest 520 598 40,000  Level Moncton Center
04:12PM 47.7167 -63.6500 236° Southwest 520 598 40,000  Level Moncton Center
04:13PM 47.6167 -63.8333 231° Southwest 520 598 40,000  Level Moncton Center
04:14PM 47.5333 -63.9833 231° Southwest 520 598 40,000  Level Moncton Center
04:15PM 47.4333 -64.1500 228° Southwest 520 598 40,000  Level Moncton Center
04:16PM 47.3333 -64.3167 229° Southwest 520 598 40,000  Level Moncton Center
04:17PM 47.2500 -64.5000 236° Southwest 530 610 40,000  Level Moncton Center
04:18PM 47.1500 -64.6500 226° Southwest 530 610 40,000  Level Moncton Center
04:19PM 47.0500 -64.8333 231° Southwest 530 610 40,000  Level Moncton Center
04:20PM 46.9667 -64.9833 231° Southwest 530 610 40,000  Level Moncton Center
04:21PM 46.8833 -65.1500 234° Southwest 530 610 40,000  Level Moncton Center
04:22PM 46.7833 -65.3333 232° Southwest 530 610 40,000  Level Moncton Center
04:23PM 46.6667 -65.5000 224° Southwest 540 621 40,000  Level Moncton Center
04:24PM 46.5667 -65.6667 229° Southwest 540 621 40,000  Level Moncton Center
04:25PM 46.4833 -65.8333 234° Southwest 540 621 40,000  Level Moncton Center
04:26PM 46.3833 -66.0000 229° Southwest 530 610 40,000  Level Moncton Center
04:27PM 46.3000 -66.1333 228° Southwest 530 610 40,000  Level Moncton Center
04:28PM 46.2000 -66.3333 234° Southwest 530 610 40,000  Level Moncton Center
04:29PM 46.0833 -66.4667 218° Southwest 540 621 40,000  Level Moncton Center
04:30PM 45.9833 -66.6667 234° Southwest 530 610 40,000  Level Moncton Center
04:31PM 45.9000 -66.8000 228° Southwest 530 610 40,000  Level Moncton Center
04:32PM 45.8000 -66.9667 229° Southwest 540 621 40,000  Level Moncton Center
04:33PM 45.7167 -67.1333 234° Southwest 540 621 40,000  Level Moncton Center
04:34PM 45.6000 -67.2833 222° Southwest 540 621 40,000  Level Moncton Center
04:35PM 45.5000 -67.4500 229° Southwest 540 621 40,000  Level Moncton Center
04:37PM 45.4056 -67.6383 235° Southwest 538 619 40,000  Level Boston Center
04:37PM 45.3000 -67.7667 221° Southwest 540 621 40,000  Level Moncton Center
04:38PM 45.2000 -67.9333 230° Southwest 540 621 40,000 -120 Level Moncton Center
04:39PM 45.2214 -67.9278 10° North 538 619 39,900  Descending Boston Center
04:39PM 45.1000 -68.1000 225° Southwest 540 621 40,000 60 Climbing Moncton Center
04:40PM 45.0917 -68.1350 251° West 538 619 40,000  Level Boston Center
04:42PM 44.9302 -68.3823 227° Southwest  Level FlightAware Approximate
04:44PM 44.6000 -68.8833 227° Southwest 530 610 40,000  Level Moncton Center
04:45PM 44.5864 -68.9100 234° Southwest 538 619 40,000  Level Boston Center
04:46PM 44.4847 -69.0614 227° Southwest 538 619 40,000  Level Boston Center
04:47PM 44.4229 -69.1525 227° Southwest  Level FlightAware Approximate
04:47PM 44.3969 -69.1944 227° Southwest 538 619 40,000  Level Boston Center
04:48PM 44.2986 -69.3392 227° Southwest 532 612 40,000  Level Boston Center
04:49PM 44.3202 -69.2975 227° Southwest  Level FlightAware Approximate
04:49PM 44.1825 -69.5161 228° Southwest 521 600 40,000  Level Boston Center
04:50PM 44.2325 -69.4267 227° Southwest  Level FlightAware Approximate
04:50PM 44.0819 -69.6597 226° Southwest 516 594 40,000  Level Boston Center
04:51PM 43.9811 -69.8058 226° Southwest 516 594 40,000  Level Boston Center
04:52PM 43.9025 -69.9244 227° Southwest 516 594 40,000  Level Boston Center
04:53PM 43.7772 -70.1139 228° Southwest 511 588 40,000  Level Boston Center
04:54PM 43.8053 -70.0498 227° Southwest  Level FlightAware Approximate
04:54PM 43.6881 -70.2350 225° Southwest 508 585 40,000  Level Boston Center
04:55PM 43.5928 -70.3789 228° Southwest 510 587 39,900  Descending Boston Center
04:56PM 43.4950 -70.5167 226° Southwest 510 587 40,000  Climbing Boston Center
04:57PM 43.4014 -70.6597 228° Southwest 510 587 40,000  Level Boston Center
04:58PM 43.3161 -70.8078 232° Southwest 504 580 40,000 -60 Level Boston Center
04:59PM 43.2306 -70.9525 231° Southwest 499 574 39,900 -60 Descending Boston Center
05:00PM 43.1428 -71.1028 231° Southwest 499 574 39,900  Level Boston Center
05:01PM 43.0569 -71.2494 231° Southwest 507 583 40,000  Climbing Boston Center
05:02PM 42.9728 -71.3931 231° Southwest 507 583 40,000  Level Boston Center
05:03PM 42.8886 -71.5278 230° Southwest 516 594 40,000  Level Boston Center
05:04PM 42.7981 -71.6789 231° Southwest 502 578 40,000  Level Boston Center
05:05PM 42.7092 -71.8214 230° Southwest 497 572 40,000  Level Boston Center
05:06PM 42.6244 -71.9661 232° Southwest 497 572 40,000  Level Boston Center
05:07PM 42.5375 -72.1075 230° Southwest 497 572 40,000 -240 Level Boston Center
05:08PM 42.4522 -72.2489 231° Southwest 497 572 39,600 -780 Descending Boston Center
05:09PM 42.3669 -72.3811 229° Southwest 481 554 38,500 -1,200 Descending Boston Center
05:10PM 42.2692 -72.5383 230° Southwest 487 560 37,200 -1,080 Descending Boston Center
05:11PM 42.1833 -72.6811 231° Southwest 492 566 36,400 -600 Descending Boston Center
05:12PM 42.0975 -72.8206 230° Southwest 492 566 36,000 -300 Descending Boston Center
05:13PM 42.0242 -72.9319 228° Southwest 484 557 35,900  Descending Boston Center
05:14PM 41.9214 -73.0847 228° Southwest 489 563 36,000  Climbing Boston Center
05:15PM 41.7822 -73.2944 228° Southwest 477 549 36,000  Level New York Center
05:22PM 41.2501 -74.0885 228° Southwest 472 543 36,000  Level FlightAware ADS-B
05:22PM 41.1872 -74.1869 228° Southwest 477 549 36,000 -180 Level New York Center
05:23PM 41.0872 -74.3250 226° Southwest 477 549 35,700 -1,860 Descending New York Center
05:24PM 41.0000 -74.4525 228° Southwest 477 549 32,400 -3,360 Descending New York Center
05:25PM 40.9183 -74.5964 233° Southwest 489 563 28,900 -2,280 Descending New York Center
05:26PM 40.8467 -74.7486 238° Southwest 495 570 27,900 -1,260 Descending New York Center
05:27PM 40.7853 -74.9011 242° Southwest 488 562 26,500 -1,440 Descending New York Center
05:28PM 40.7667 -75.0700 262° West 458 527 25,000 -1,320 Descending New York Center
05:29PM 40.7483 -75.2306 261° West 458 527 23,900 -1,140 Descending New York Center
05:30PM 40.6783 -75.3708 237° Southwest 446 513 22,800 -1,200 Descending New York Center
05:31PM 40.6022 -75.4997 232° Southwest 446 513 21,600 -1,140 Descending New York Center
05:32PM 40.5261 -75.6283 232° Southwest 453 521 20,600 -900 Descending New York Center
05:33PM 40.4525 -75.7486 231° Southwest 447 514 19,900 -300 Descending New York Center
05:34PM 40.3828 -75.8661 232° Southwest 437 503 20,000  Climbing New York Center
05:35PM 40.3047 -75.9856 229° Southwest 430 495 20,000 -360 Level New York Center
05:36PM 40.2325 -76.1053 232° Southwest 430 495 19,300 -960 Descending New York Center
05:37PM 40.1736 -76.2094 234° Southwest 415 478 18,100 -960 Descending New York Center
05:38PM 40.0969 -76.3364 232° Southwest 415 478 17,400 -960 Descending New York Center
05:39PM 40.0428 -76.4625 241° Southwest 400 460 16,200 -1,020 Descending New York Center
05:40PM 39.9847 -76.5850 238° Southwest 400 460 15,500 -660 Descending New York Center
05:41PM 39.9289 -76.7050 239° Southwest 395 455 15,000 -300 Descending New York Center
05:42PM 39.8728 -76.8247 239° Southwest 395 455 15,000  Level New York Center
05:43PM 39.8167 -76.9333 236° Southwest 389 448 15,000 -960 Level Potomac TRACON
05:44PM 39.7667 -77.0500 241° Southwest 387 445 13,200 -1,620 Descending Potomac TRACON
05:45PM 39.7167 -77.1667 241° Southwest 384 442 11,700 -1,500 Descending Potomac TRACON
05:46PM 39.6333 -77.2500 218° Southwest 366 421 10,200 -1,200 Descending Potomac TRACON
05:47PM 39.5667 -77.3167 218° Southwest 320 368 9,500 -900 Descending Potomac TRACON
05:48PM 39.4833 -77.3667 205° Southwest 290 334 8,500 -1,080 Descending Potomac TRACON
05:49PM 39.4167 -77.4167 210° Southwest 284 327 7,300 -1,080 Descending Potomac TRACON
05:50PM 39.3500 -77.4667 210° Southwest 279 321 6,400 -1,080 Descending Potomac TRACON
05:51PM 39.2667 -77.4667 180° South 269 310 5,200 -780 Descending Potomac TRACON
05:52PM 39.2000 -77.4500 169° South 270 311 5,000 -840 Descending Potomac TRACON
05:53PM 39.1500 -77.4500 180° South 232 267 3,700 -1,200 Descending Potomac TRACON
05:54PM 39.0833 -77.4500 180° South 187 215 2,600 -1,020 Descending Potomac TRACON
05:55PM 39.0333 -77.4667 195° South 164 189 1,600 -900 Descending Potomac TRACON
05:56PM 39.0000 -77.4667 180° South 135 155 800 -840 Descending Potomac TRACON